Time;durP1;ratioP1;P1;durP2;ratioP2;P2;SDS_P1;SDS_P2;PMS_P1;PMS_P2;Temp;Humidity;BMP_temperature;BMP_pressure;BME280_temperature;BME280_humidity;BME280_pressure;Samples;Min_cycle;Max_cycle;Signal;HPM_P1;HPM_P2
2022/05/31 00:01:25;;;;;;;;;5.00;5.00;;;;;16.38;40.03;100846.78;5076605;28;45460;-59
2022/05/31 00:03:50;;;;;;;;;3.67;3.67;;;;;16.29;40.18;100837.16;5076963;28;45394;-62
2022/05/31 00:06:16;;;;;;;;;4.00;4.00;;;;;16.34;40.07;100842.81;5076973;28;45334;-60
2022/05/31 00:08:42;;;;;;;;;7.33;4.00;;;;;16.30;40.00;100842.31;5077027;28;45533;-62
2022/05/31 00:11:07;;;;;;;;;6.00;2.67;;;;;16.29;40.23;100837.16;5076100;28;46029;-62
2022/05/31 00:13:33;;;;;;;;;6.00;3.00;;;;;16.26;40.41;100841.03;5075431;28;45458;-62
2022/05/31 00:15:58;;;;;;;;;3.67;3.67;;;;;16.24;39.97;100843.06;5076438;28;46089;-60
2022/05/31 00:18:25;;;;;;;;;4.00;4.00;;;;;16.18;40.27;100841.09;5077073;28;45320;-63
2022/05/31 00:20:50;;;;;;;;;6.00;4.33;;;;;16.19;40.62;100840.94;5076773;28;46100;-59
2022/05/31 00:23:16;;;;;;;;;4.00;4.00;;;;;16.10;40.91;100825.91;5076677;28;45292;-64
2022/05/31 00:25:41;;;;;;;;;3.00;3.00;;;;;16.10;40.80;100833.97;5076683;28;45400;-64
2022/05/31 00:28:07;;;;;;;;;4.00;4.00;;;;;16.11;40.92;100832.13;5076861;28;45394;-58
2022/05/31 00:30:33;;;;;;;;;4.00;4.00;;;;;15.94;41.12;100812.63;5076434;28;46208;-61
2022/05/31 00:33:00;;;;;;;;;4.00;3.67;;;;;16.02;40.86;100825.16;5076515;28;45247;-61
2022/05/31 00:35:36;;;;;;;;;5.00;3.67;;;;;16.03;40.77;100834.88;5076897;27;45313;-57
2022/05/31 00:38:02;;;;;;;;;3.00;3.00;;;;;16.07;41.01;100826.28;5076890;27;45408;-60
2022/05/31 00:40:30;;;;;;;;;5.00;3.00;;;;;16.08;40.71;100840.53;5076452;28;46345;-63
2022/05/31 00:42:57;;;;;;;;;3.00;3.00;;;;;16.07;40.86;100842.38;5076609;28;45279;-58
2022/05/31 00:45:52;;;;;;;;;3.00;3.00;;;;;16.08;40.63;100840.53;5076596;28;45614;-60
2022/05/31 00:48:35;;;;;;;;;3.00;3.00;;;;;16.07;40.81;100837.00;5074444;28;45580;-63
2022/05/31 00:51:07;;;;;;;;;2.33;2.33;;;;;16.06;40.69;100846.06;5074222;28;45454;-62
2022/05/31 00:53:45;;;;;;;;;4.67;4.00;;;;;16.03;40.61;100843.75;5073888;28;45817;-55
2022/05/31 00:56:18;;;;;;;;;2.00;2.00;;;;;16.02;40.88;100847.44;5074285;28;45526;-62
2022/05/31 00:58:52;;;;;;;;;3.00;2.67;;;;;16.02;40.70;100846.63;5074509;28;45543;-57
2022/05/31 01:01:18;;;;;;;;;2.00;2.00;;;;;15.91;41.23;100823.72;5074108;28;46219;-62
2022/05/31 01:03:45;;;;;;;;;2.00;2.00;;;;;15.98;40.76;100843.44;5073832;28;45458;-63
2022/05/31 01:06:11;;;;;;;;;3.00;1.67;;;;;15.92;40.73;100830.75;5073273;28;45517;-60
2022/05/31 01:08:41;;;;;;;;;1.33;1.00;;;;;15.91;40.62;100827.22;5074304;28;45473;-60
2022/05/31 01:11:08;;;;;;;;;2.00;1.33;;;;;15.91;40.76;100829.06;5074136;28;45351;-60
2022/05/31 01:13:33;;;;;;;;;3.00;2.00;;;;;15.92;40.92;100830.75;5074461;28;45495;-59
2022/05/31 01:16:10;;;;;;;;;2.33;2.33;;;;;15.92;40.66;100834.25;5073956;28;45586;-63
2022/05/31 01:18:36;;;;;;;;;2.00;2.00;;;;;15.91;40.81;100829.91;5074348;28;45533;-62
2022/05/31 01:21:02;;;;;;;;;5.00;2.00;;;;;15.90;40.53;100830.94;5073865;28;46280;-59
2022/05/31 01:23:43;;;;;;;;;3.00;2.00;;;;;15.88;40.47;100819.53;5075002;28;45276;-63
2022/05/31 01:26:13;;;;;;;;;2.00;2.00;;;;;15.86;40.44;100815.38;5079213;28;45448;-58
2022/05/31 01:28:46;;;;;;;;;3.00;1.67;;;;;15.85;41.24;100825.28;5079874;28;45421;-63
2022/05/31 01:31:24;;;;;;;;;2.00;2.00;;;;;15.86;41.21;100829.63;5079181;28;47292;-62
2022/05/31 01:34:09;;;;;;;;;3.00;1.00;;;;;15.85;41.15;100830.63;5079499;28;45330;-62
2022/05/31 01:36:39;;;;;;;;;2.33;2.33;;;;;15.86;40.78;100829.63;5079462;28;45458;-63
2022/05/31 01:39:12;;;;;;;;;1.33;1.33;;;;;15.85;41.26;100822.59;5079794;28;45465;-62
2022/05/31 01:41:46;;;;;;;;;3.00;3.00;;;;;15.74;41.18;100800.72;5079207;28;47415;-63
2022/05/31 01:44:15;;;;;;;;;1.00;1.00;;;;;15.75;41.30;100819.28;5079177;28;45287;-60
2022/05/31 01:46:41;;;;;;;;;2.00;2.00;;;;;15.81;41.52;100813.22;5079358;28;45296;-62
2022/05/31 01:49:10;;;;;;;;;3.67;3.00;;;;;15.88;41.56;100830.25;5079395;28;45505;-64
2022/05/31 01:51:37;;;;;;;;;3.00;3.00;;;;;15.92;41.67;100830.75;5078448;28;45399;-55
2022/05/31 01:54:04;;;;;;;;;3.00;3.00;;;;;15.93;41.78;100838.63;5079073;28;45489;-60
2022/05/31 01:56:30;;;;;;;;;3.33;2.00;;;;;15.96;41.89;100832.88;5078914;28;45323;-60
2022/05/31 01:58:58;;;;;;;;;3.33;3.33;;;;;15.96;41.73;100826.69;5079539;28;45349;-59
2022/05/31 02:01:26;;;;;;;;;2.00;2.00;;;;;15.98;41.52;100830.03;5079045;28;46070;-59
2022/05/31 02:03:51;;;;;;;;;2.00;2.00;;;;;15.98;41.29;100832.72;5079039;28;45370;-63
2022/05/31 02:06:35;;;;;;;;;5.00;2.00;;;;;15.96;41.32;100826.69;5078989;28;45260;-61
2022/05/31 02:09:02;;;;;;;;;4.00;3.00;;;;;15.96;41.32;100822.16;5079363;28;45469;-61
2022/05/31 02:11:28;;;;;;;;;2.67;2.33;;;;;16.00;41.20;100828.00;5079003;28;46165;-58
2022/05/31 02:13:54;;;;;;;;;2.00;2.00;;;;;16.02;41.25;100831.34;5079004;27;45913;-57
2022/05/31 02:16:19;;;;;;;;;2.00;2.00;;;;;15.93;41.00;100824.38;5078881;28;45425;-55
2022/05/31 02:21:35;;;;;;;;;2.33;2.33;;;;;15.99;41.41;100838.91;5078769;28;45463;-55
2022/05/31 02:24:12;;;;;;;;;2.00;2.00;;;;;16.02;41.47;100842.09;5078779;28;45493;-55
2022/05/31 02:26:41;;;;;;;;;2.00;2.00;;;;;16.02;41.55;100842.09;5079025;28;45370;-56
2022/05/31 02:29:09;;;;;;;;;5.00;2.33;;;;;16.06;41.66;100842.56;5078980;28;45271;-55
2022/05/31 02:31:35;;;;;;;;;3.00;2.00;;;;;16.07;41.73;100838.84;5078363;27;45712;-55
2022/05/31 02:34:01;;;;;;;;;3.00;2.00;;;;;16.04;41.78;100836.53;5078197;28;45933;-56
2022/05/31 02:36:26;;;;;;;;;1.00;1.00;;;;;16.08;42.11;100844.03;5078529;28;45404;-57
2022/05/31 02:38:53;;;;;;;;;2.00;2.00;;;;;16.11;41.63;100838.31;5078788;28;45363;-55
2022/05/31 02:41:18;;;;;;;;;2.00;2.00;;;;;16.10;41.72;100842.03;5077002;28;47392;-55
2022/05/31 02:43:44;;;;;;;;;2.33;2.00;;;;;16.11;41.46;100848.22;5078312;28;45381;-55
2022/05/31 02:46:09;;;;;;;;;3.00;2.33;;;;;16.09;41.57;100836.81;5078445;28;45291;-56
2022/05/31 02:48:35;;;;;;;;;4.00;2.00;;;;;16.00;41.47;100811.91;5078364;28;45531;-55
2022/05/31 02:51:00;;;;;;;;;3.00;3.00;;;;;16.08;40.84;100832.47;5078196;28;46859;-57
2022/05/31 02:53:26;;;;;;;;;3.00;2.00;;;;;16.09;40.93;100843.00;5078238;28;45312;-58
2022/05/31 02:55:51;;;;;;;;;2.00;2.00;;;;;16.00;40.98;100827.16;5078221;28;45335;-56
2022/05/31 02:58:16;;;;;;;;;2.00;2.00;;;;;16.10;41.00;100828.59;5078497;28;45215;-55
2022/05/31 03:00:42;;;;;;;;;1.00;1.00;;;;;16.10;40.93;100831.28;5078165;28;46958;-54
2022/05/31 03:03:07;;;;;;;;;3.67;2.00;;;;;16.11;41.15;100830.25;5078037;28;45359;-55
2022/05/31 03:05:33;;;;;;;;;4.33;3.00;;;;;16.10;41.19;100828.59;5111191;27;45378;-64
2022/05/31 03:07:58;;;;;;;;;2.00;2.00;;;;;16.08;40.50;100830.63;5078394;28;45246;-55
2022/05/31 03:10:30;;;;;;;;;5.33;1.67;;;;;16.07;40.14;100828.13;5077686;28;46248;-56
2022/05/31 03:12:55;;;;;;;;;2.00;2.00;;;;;16.02;40.16;100817.94;5077764;28;45339;-55
2022/05/31 03:15:24;;;;;;;;;2.67;2.67;;;;;15.99;40.28;100815.59;5077756;28;45307;-58
2022/05/31 03:18:00;;;;;;;;;3.33;2.00;;;;;15.88;40.32;100810.66;5078258;28;45459;-57
2022/05/31 03:20:33;;;;;;;;;3.67;3.00;;;;;15.88;40.30;100824.06;5077734;28;46414;-56
2022/05/31 03:23:11;;;;;;;;;8.67;3.67;;;;;15.87;39.99;100839.31;5077754;28;46060;-59
2022/05/31 03:25:40;;;;;;;;;3.00;3.00;;;;;15.90;40.37;100838.97;5077946;28;45465;-58
2022/05/31 03:28:07;;;;;;;;;4.00;4.00;;;;;15.91;40.24;100832.59;5078004;28;45448;-56
2022/05/31 03:30:36;;;;;;;;;5.00;2.00;;;;;15.94;40.61;100834.09;5077372;28;46251;-57
2022/05/31 03:33:04;;;;;;;;;3.00;3.00;;;;;15.95;40.72;100830.38;5077077;28;45491;-55
2022/05/31 03:35:29;;;;;;;;;2.67;2.67;;;;;15.83;41.14;100805.00;5077560;28;45240;-62
2022/05/31 03:37:55;;;;;;;;;4.00;3.00;;;;;15.94;40.48;100824.19;5110752;27;45337;-58
2022/05/31 03:43:05;;;;;;;;;5.00;3.33;;;;;15.85;40.11;100824.44;5077776;28;45337;-56
2022/05/31 03:45:41;;;;;;;;;4.67;4.00;;;;;15.83;39.93;100823.78;5077261;27;45468;-56
2022/05/31 03:48:08;;;;;;;;;4.67;4.00;;;;;15.80;40.12;100818.75;5110370;27;45519;-56
2022/05/31 03:50:34;;;;;;;;;4.67;3.67;;;;;15.77;40.37;100817.28;5077006;28;46793;-57
2022/05/31 03:52:59;;;;;;;;;6.00;4.00;;;;;15.78;40.51;100829.69;5077124;28;45169;-56
2022/05/31 03:55:25;;;;;;;;;4.67;3.00;;;;;15.79;40.55;100841.25;5077307;28;45286;-56
2022/05/31 03:57:52;;;;;;;;;4.00;4.00;;;;;15.78;40.49;100845.78;5077727;28;45289;-57
2022/05/31 04:00:19;;;;;;;;;4.67;3.00;;;;;15.77;40.71;100836.06;5077129;28;47311;-60
2022/05/31 04:02:45;;;;;;;;;6.67;3.33;;;;;15.78;40.57;100836.88;5077247;28;45347;-57
2022/05/31 04:05:11;;;;;;;;;5.67;5.67;;;;;15.78;40.72;100837.72;5076754;28;45390;-60
2022/05/31 04:07:36;;;;;;;;;6.00;4.00;;;;;15.80;41.01;100838.41;5077083;28;45402;-57
2022/05/31 04:10:03;;;;;;;;;4.33;4.33;;;;;15.78;41.01;100834.22;5076920;28;47527;-56
2022/05/31 04:12:30;;;;;;;;;5.67;4.67;;;;;15.80;41.46;100821.44;5077132;28;45390;-56
2022/05/31 04:14:56;;;;;;;;;5.67;4.00;;;;;15.79;41.56;100817.94;5077134;28;45334;-61
2022/05/31 04:17:22;;;;;;;;;7.00;4.00;;;;;15.78;41.56;100815.44;5076689;28;45360;-57
2022/05/31 04:19:47;;;;;;;;;5.00;5.00;;;;;15.80;41.45;100822.31;5076627;28;45947;-57
2022/05/31 04:22:12;;;;;;;;;5.00;5.00;;;;;15.79;41.27;100809.06;5077130;28;45465;-62
2022/05/31 04:24:38;;;;;;;;;5.33;3.33;;;;;15.80;41.41;100810.72;5077066;28;45390;-62
2022/05/31 04:27:03;;;;;;;;;4.00;3.67;;;;;15.80;41.81;100821.44;5077252;28;45518;-63
2022/05/31 04:29:29;;;;;;;;;5.33;5.00;;;;;15.79;41.91;100815.25;5076817;28;45344;-60
2022/05/31 04:31:54;;;;;;;;;8.00;6.00;;;;;15.79;42.66;100819.78;5076819;28;45419;-61
2022/05/31 04:34:20;;;;;;;;;5.00;4.33;;;;;15.79;42.91;100814.41;5076925;28;45550;-62
2022/05/31 04:36:45;;;;;;;;;4.00;4.00;;;;;15.80;42.83;100814.25;5077127;28;45317;-62
2022/05/31 04:39:10;;;;;;;;;5.00;5.00;;;;;15.82;42.93;100822.94;5109379;27;46265;-60
2022/05/31 04:41:36;;;;;;;;;4.00;4.00;;;;;15.85;43.00;100813.72;5076697;28;45497;-56
2022/05/31 04:44:04;;;;;;;;;6.00;4.67;;;;;15.86;43.40;100831.47;5076881;28;45225;-58
2022/05/31 04:46:32;;;;;;;;;4.33;4.33;;;;;15.86;43.40;100816.19;5077015;28;45541;-57
2022/05/31 04:48:59;;;;;;;;;10.33;6.33;;;;;15.89;43.47;100831.94;5076328;27;45320;-57
2022/05/31 04:51:27;;;;;;;;;4.00;4.00;;;;;15.92;43.73;100830.75;5076245;28;45445;-57
2022/05/31 04:53:53;;;;;;;;;5.33;5.33;;;;;15.96;43.67;100834.72;5076762;27;45443;-56
2022/05/31 04:56:20;;;;;;;;;8.00;6.67;;;;;15.95;43.87;100833.91;5076604;27;45199;-57
2022/05/31 04:58:47;;;;;;;;;4.00;4.00;;;;;16.03;43.71;100835.69;5077950;28;45363;-60
2022/05/31 05:01:13;;;;;;;;;8.00;4.00;;;;;16.03;43.47;100838.38;5079883;28;45701;-56
2022/05/31 05:03:41;;;;;;;;;7.67;4.67;;;;;16.09;43.58;100834.13;5079941;28;45482;-56
2022/05/31 05:06:09;;;;;;;;;7.67;5.00;;;;;16.08;43.34;100835.16;5078883;28;45460;-56
2022/05/31 05:08:35;;;;;;;;;9.67;5.67;;;;;16.10;43.11;100833.97;5079558;28;45487;-57
2022/05/31 05:11:03;;;;;;;;;4.00;4.00;;;;;16.09;43.08;100840.31;5079735;28;45407;-60
2022/05/31 05:13:29;;;;;;;;;5.00;5.00;;;;;16.08;42.99;100840.53;5079869;28;45362;-56
2022/05/31 05:15:56;;;;;;;;;8.33;4.00;;;;;16.11;43.04;100840.16;5079577;28;45982;-56
2022/05/31 05:18:22;;;;;;;;;3.00;3.00;;;;;16.11;43.00;100856.25;5079717;28;45865;-61
2022/05/31 05:20:48;;;;;;;;;9.33;5.00;;;;;16.11;43.16;100851.72;5079289;28;45328;-58
2022/05/31 05:23:14;;;;;;;;;3.00;3.00;;;;;16.13;43.21;100854.22;5079496;28;45281;-58
2022/05/31 05:25:39;;;;;;;;;4.33;4.33;;;;;16.17;43.26;100853.69;5079962;28;45177;-57
2022/05/31 05:30:51;;;;;;;;;5.33;4.00;;;;;16.21;42.98;100849.63;5016655;28;45495;-57
2022/05/31 05:33:18;;;;;;;;;5.00;4.67;;;;;16.37;43.00;100861.25;5016642;28;45594;-58
2022/05/31 05:35:43;;;;;;;;;3.00;3.00;;;;;16.45;42.97;100863.84;5016719;28;45411;-57
2022/05/31 05:38:09;;;;;;;;;4.67;3.67;;;;;16.46;42.89;100862.81;5016656;28;46158;-44
2022/05/31 05:40:35;;;;;;;;;6.00;4.00;;;;;16.52;42.49;100858.56;5016807;28;45379;-45
2022/05/31 05:43:00;;;;;;;;;4.00;4.00;;;;;16.57;42.46;100866.94;5016652;28;45926;-47
2022/05/31 05:45:26;;;;;;;;;5.67;5.00;;;;;16.64;42.15;100865.16;5016834;28;45446;-46
2022/05/31 05:47:52;;;;;;;;;5.00;5.00;;;;;16.77;42.07;100860.06;5016051;28;46097;-48
2022/05/31 05:50:17;;;;;;;;;5.00;4.00;;;;;17.00;42.32;100867.19;5015943;28;45528;-46
2022/05/31 05:52:48;;;;;;;;;5.00;5.00;;;;;17.15;41.63;100868.00;5016504;28;45454;-45
2022/05/31 05:55:14;;;;;;;;;4.67;4.33;;;;;17.26;41.44;100862.16;5016502;28;45569;-50
2022/05/31 05:57:39;;;;;;;;;4.00;4.00;;;;;17.41;41.20;100871.03;5015742;28;45622;-48
2022/05/31 06:00:06;;;;;;;;;5.00;3.00;;;;;17.51;40.57;100869.91;5016287;28;45601;-53
2022/05/31 06:02:32;;;;;;;;;4.00;4.00;;;;;17.56;40.69;100871.00;5016292;28;45480;-47
2022/05/31 06:05:16;;;;;;;;;4.00;4.00;;;;;17.64;40.60;100870.88;5016064;28;45552;-47
2022/05/31 06:08:08;;;;;;;;;4.00;4.00;;;;;17.72;40.94;100878.00;5040208;28;46146;-42
2022/05/31 06:10:55;;;;;;;;;4.00;4.00;;;;;17.78;40.38;100879.97;5077881;28;45344;-45
2022/05/31 06:13:26;;;;;;;;;4.33;4.33;;;;;17.87;40.40;100875.31;5078801;28;45380;-44
2022/05/31 06:15:55;;;;;;;;;6.00;5.00;;;;;17.94;40.03;100881.56;5078258;28;45442;-46
2022/05/31 06:18:29;;;;;;;;;5.00;3.00;;;;;17.98;39.73;100880.16;5078113;28;46001;-45
2022/05/31 06:21:00;;;;;;;;;7.00;3.67;;;;;18.00;39.95;100874.59;5077866;28;45579;-47
2022/05/31 06:23:26;;;;;;;;;3.67;2.00;;;;;17.94;39.77;100877.03;5077858;28;45432;-45
2022/05/31 06:25:52;;;;;;;;;4.33;4.33;;;;;17.94;39.88;100881.56;5078492;27;45421;-51
2022/05/31 06:28:17;;;;;;;;;6.00;3.67;;;;;17.96;39.95;100879.53;5078015;28;47439;-44
2022/05/31 06:30:42;;;;;;;;;5.00;3.00;;;;;18.03;39.93;100875.03;5078598;27;45393;-50
2022/05/31 06:33:08;;;;;;;;;5.00;5.00;;;;;18.10;39.38;100873.25;5078083;28;45439;-47
2022/05/31 06:35:33;;;;;;;;;7.67;6.00;;;;;18.26;39.08;100874.03;5078478;28;45412;-44
2022/05/31 06:38:00;;;;;;;;;3.67;3.67;;;;;18.40;39.13;100875.78;5059764;28;46088;-44
2022/05/31 06:40:25;;;;;;;;;5.67;5.00;;;;;18.57;38.87;100881.72;5059914;28;45531;-47
2022/05/31 06:42:50;;;;;;;;;8.00;5.33;;;;;18.82;38.36;100879.44;5077951;27;45484;-43
2022/05/31 06:45:16;;;;;;;;;6.00;4.00;;;;;19.17;37.69;100883.81;5078278;28;45404;-42
2022/05/31 06:47:41;;;;;;;;;8.33;6.00;;;;;19.52;37.10;100883.75;5077925;27;46007;-46
2022/05/31 06:50:07;;;;;;;;;7.00;6.67;;;;;20.13;35.94;100891.81;5077855;28;45418;-44
2022/05/31 06:58:01;;;;;;;;;6.00;5.33;;;;;22.00;33.05;100876.81;5077964;27;45384;-46
2022/05/31 07:00:26;;;;;;;;;4.67;4.00;;;;;22.70;32.21;100865.00;5077627;27;45404;-47
2022/05/31 07:02:54;;;;;;;;;8.33;5.67;;;;;22.86;31.48;100876.09;5078110;28;45379;-46
2022/05/31 07:05:20;;;;;;;;;11.75;7.75;;;;;22.58;32.33;100871.16;5078049;28;45297;-46
2022/05/31 07:07:46;;;;;;;;;5.00;4.75;;;;;22.32;32.50;100876.81;5077543;28;47028;-46
2022/05/31 07:10:12;;;;;;;;;5.00;4.00;;;;;22.06;32.62;100875.94;5077866;28;45440;-44
2022/05/31 07:12:38;;;;;;;;;8.00;6.67;;;;;21.78;32.79;100870.06;5077755;28;45425;-47
2022/05/31 07:15:04;;;;;;;;;8.00;5.00;;;;;21.50;33.58;100873.97;5078001;28;45354;-45
2022/05/31 07:17:30;;;;;;;;;9.00;5.25;;;;;21.34;33.80;100886.13;5058830;28;47192;-48
2022/05/31 07:19:56;;;;;;;;;8.50;7.00;;;;;21.19;34.17;100877.38;5077020;28;45540;-45
2022/05/31 07:22:22;;;;;;;;;9.00;7.00;;;;;21.12;34.38;100885.53;5076649;28;45340;-44
2022/05/31 07:24:47;;;;;;;;;7.33;6.00;;;;;21.05;33.79;100875.78;5077542;27;45305;-44
2022/05/31 07:27:15;;;;;;;;;9.00;7.33;;;;;21.06;33.84;100889.06;5077417;28;46244;-49
2022/05/31 07:29:40;;;;;;;;;6.33;6.00;;;;;21.06;34.01;100889.06;5077412;28;45461;-45
2022/05/31 07:32:07;;;;;;;;;10.00;9.33;;;;;21.16;34.19;100889.47;5077429;27;45450;-45
2022/05/31 07:34:33;;;;;;;;;9.00;7.67;;;;;21.31;33.42;100882.97;5077750;28;45501;-43
2022/05/31 07:36:59;;;;;;;;;10.33;7.67;;;;;21.10;33.94;100890.31;5077094;28;47223;-46
2022/05/31 07:39:24;;;;;;;;;6.33;6.33;;;;;20.89;34.84;100885.16;5077394;28;45450;-45
2022/05/31 07:41:50;;;;;;;;;6.67;4.67;;;;;20.72;34.86;100892.06;5077794;28;45312;-47
2022/05/31 07:44:16;;;;;;;;;10.33;6.33;;;;;20.56;35.07;100891.47;5077400;27;45374;-45
2022/05/31 07:46:42;;;;;;;;;5.00;5.00;;;;;20.43;34.90;100900.34;5077361;28;46043;-47
2022/05/31 07:49:08;;;;;;;;;5.00;5.00;;;;;20.37;34.78;100900.38;5077006;28;45320;-47
2022/05/31 07:51:33;;;;;;;;;5.67;3.67;;;;;20.34;35.11;100900.78;5076903;28;45439;-44
2022/05/31 07:53:59;;;;;;;;;6.67;5.33;;;;;20.34;34.52;100906.16;5077585;27;45374;-50
2022/05/31 07:56:26;;;;;;;;;5.00;3.33;;;;;20.37;34.04;100900.38;5076688;28;47314;-52
2022/05/31 07:58:52;;;;;;;;;4.00;4.00;;;;;20.44;34.27;100903.91;5077144;28;45442;-45
2022/05/31 08:01:22;;;;;;;;;6.00;6.00;;;;;20.62;34.72;100903.31;5077015;28;45387;-45
2022/05/31 08:03:48;;;;;;;;;8.00;6.67;;;;;20.95;33.91;100887.03;5077268;28;45522;-45
2022/05/31 08:06:17;;;;;;;;;6.00;5.33;;;;;21.17;33.25;100893.84;5076462;27;46363;-44
2022/05/31 08:08:43;;;;;;;;;5.75;5.75;;;;;21.17;33.48;100898.44;5076646;27;45601;-49
2022/05/31 08:11:11;;;;;;;;;9.00;6.00;;;;;21.19;33.78;100899.03;5076838;28;45481;-45
2022/05/31 08:13:37;;;;;;;;;7.00;5.00;;;;;21.24;32.64;100901.94;5076992;28;45506;-44
2022/05/31 08:16:04;;;;;;;;;2.00;2.00;;;;;21.41;32.55;100900.47;5076151;28;47216;-45
2022/05/31 08:18:30;;;;;;;;;4.00;4.00;;;;;21.72;32.41;100896.16;5076856;27;45303;-43
2022/05/31 08:21:05;;;;;;;;;7.50;6.00;;;;;21.77;32.31;100881.97;5076557;27;45305;-46
2022/05/31 08:23:31;;;;;;;;;4.00;4.00;;;;;22.27;32.02;100901.88;5076642;27;45771;-51
2022/05/31 08:25:56;;;;;;;;;7.25;4.75;;;;;23.34;30.51;100898.97;5076484;28;45411;-47
2022/05/31 08:28:22;;;;;;;;;4.50;3.75;;;;;25.13;27.95;100888.94;5076547;27;45561;-44
2022/05/31 08:30:52;;;;;;;;;4.25;3.75;;;;;25.86;27.53;100883.84;5076903;28;45390;-45
2022/05/31 08:33:18;;;;;;;;;3.75;3.75;;;;;26.75;26.02;100888.63;5079426;27;45269;-44
2022/05/31 08:35:43;;;;;;;;;6.00;3.00;;;;;26.44;25.60;100893.63;5080284;27;46305;-45
2022/05/31 08:38:08;;;;;;;;;3.50;3.50;;;;;26.11;26.41;100888.94;5080093;28;45518;-47
2022/05/31 08:40:45;;;;;;;;;6.00;5.00;;;;;27.23;25.56;100885.25;5080573;27;45306;-46
2022/05/31 08:43:16;;;;;;;;;3.20;3.00;;;;;30.32;22.43;100869.44;5080382;27;45156;-46
2022/05/31 08:45:52;;;;;;;;;3.00;3.00;;;;;33.06;19.49;100875.59;5079906;28;46341;-46
2022/05/31 08:48:31;;;;;;;;;4.00;4.00;;;;;34.87;19.13;100875.00;5079411;27;45231;-48
2022/05/31 08:56:59;;;;;;;;;3.20;3.20;;;;;34.97;18.18;100879.50;5079677;28;45477;-44
2022/05/31 08:59:29;;;;;;;;;4.00;3.00;;;;;35.03;17.87;100883.03;5079714;28;45506;-46
2022/05/31 09:01:58;;;;;;;;;1.40;1.40;;;;;37.10;16.08;100880.22;5080014;27;45430;-45
2022/05/31 09:04:26;;;;;;;;;3.00;2.00;;;;;39.11;14.82;100871.38;5080007;27;45422;-46
2022/05/31 09:07:05;;;;;;;;;3.40;3.40;;;;;39.38;15.35;100864.50;5079498;28;46388;-45
2022/05/31 09:09:43;;;;;;;;;5.40;4.20;;;;;41.25;13.10;100875.47;5079752;27;45455;-47
2022/05/31 09:12:28;;;;;;;;;4.00;3.00;;;;;41.80;11.69;100882.31;5079819;27;45445;-49
2022/05/31 09:15:09;;;;;;;;;3.20;3.20;;;;;41.26;13.42;100872.34;5079766;28;45373;-45
2022/05/31 09:17:58;;;;;;;;;4.60;3.20;;;;;42.87;11.67;100874.06;5079129;27;46339;-44
2022/05/31 09:20:35;;;;;;;;;3.00;3.00;;;;;44.14;11.70;100876.44;5079378;28;45374;-45
2022/05/31 09:23:01;;;;;;;;;7.60;4.80;;;;;44.32;10.93;100875.59;5079316;28;45379;-47
2022/05/31 09:25:36;;;;;;;;;3.50;3.50;;;;;44.96;12.10;100880.69;5079608;27;45383;-45
2022/05/31 09:28:11;;;;;;;;;3.60;3.60;;;;;45.26;9.70;100884.41;5079206;28;45384;-45
2022/05/31 09:30:41;;;;;;;;;2.00;2.00;;;;;45.29;10.31;100880.81;5079339;28;45328;-45
2022/05/31 09:33:12;;;;;;;;;3.20;3.20;;;;;45.74;9.55;100886.63;5079410;27;45477;-50
2022/05/31 09:35:47;;;;;;;;;3.00;3.00;;;;;46.13;9.32;100887.09;5079628;27;45435;-44
2022/05/31 09:38:43;;;;;;;;;3.60;3.60;;;;;46.26;9.51;100882.03;5078785;27;45541;-44
2022/05/31 09:41:36;;;;;;;;;3.60;3.00;;;;;46.68;8.71;100875.19;5078690;27;45394;-45
2022/05/31 09:44:32;;;;;;;;;4.00;2.00;;;;;47.09;9.34;100875.09;5078518;27;45368;-46
2022/05/31 09:47:11;;;;;;;;;3.00;3.00;;;;;47.31;8.87;100876.84;5079321;28;45323;-45
2022/05/31 09:49:43;;;;;;;;;4.00;3.00;;;;;46.71;10.07;100883.66;5078688;28;46373;-47
2022/05/31 09:52:16;;;;;;;;;3.60;3.60;;;;;46.27;8.20;100870.41;5078560;27;45613;-47
2022/05/31 09:58:24;;;;;;;;;2.20;2.20;;;;;46.23;11.01;100871.53;5078966;27;45468;-45
2022/05/31 10:01:23;;;;;;;;;2.80;2.80;;;;;46.60;8.02;100865.06;5078699;28;46178;-56
2022/05/31 10:03:54;;;;;;;;;1.00;1.00;;;;;47.05;9.01;100865.81;5078915;28;45374;-45
2022/05/31 10:06:26;;;;;;;;;2.80;2.80;;;;;47.26;8.71;100871.56;5078860;27;45443;-51
2022/05/31 10:08:54;;;;;;;;;2.40;2.40;;;;;44.71;9.51;100861.50;5078701;27;45536;-47
2022/05/31 10:11:33;;;;;;;;;3.80;1.80;;;;;42.26;10.66;100863.28;5078634;28;45445;-45
2022/05/31 10:14:06;;;;;;;;;1.00;1.00;;;;;39.61;11.63;100862.16;5078819;27;45363;-44
2022/05/31 10:16:32;;;;;;;;;1.00;1.00;;;;;37.45;12.84;100876.38;5078438;28;45524;-45
2022/05/31 10:19:05;;;;;;;;;1.20;1.20;;;;;35.48;14.79;100873.78;5078667;28;45509;-44
2022/05/31 10:21:41;;;;;;;;;1.80;1.80;;;;;33.78;15.30;100871.59;5077804;27;45465;-45
2022/05/31 10:24:20;;;;;;;;;4.60;3.20;;;;;32.36;16.44;100873.22;5078400;27;45350;-44
2022/05/31 10:27:27;;;;;;;;;4.40;2.80;;;;;30.83;17.62;100872.13;5078589;28;45374;-44
2022/05/31 10:29:59;;;;;;;;;2.00;2.00;;;;;29.71;18.69;100881.19;5078847;27;45418;-45
2022/05/31 10:32:24;;;;;;;;;5.20;4.00;;;;;28.80;19.88;100885.13;5077993;27;45453;-43
2022/05/31 10:35:08;;;;;;;;;4.00;3.25;;;;;28.14;20.64;100876.38;5078506;27;45424;-43
2022/05/31 10:37:33;;;;;;;;;2.00;2.00;;;;;27.59;21.17;100872.81;5078390;27;45403;-44
2022/05/31 10:40:07;;;;;;;;;4.75;3.00;;;;;27.04;21.40;100875.66;5078519;28;45437;-45
2022/05/31 10:42:38;;;;;;;;;3.20;3.20;;;;;26.50;22.05;100868.06;5077026;28;47885;-46
2022/05/31 10:45:07;;;;;;;;;3.00;2.20;;;;;26.27;21.80;100871.75;5078361;28;45423;-47
2022/05/31 10:47:32;;;;;;;;;2.80;2.80;;;;;26.00;22.18;100876.19;5077460;28;45379;-44
2022/05/31 10:49:58;;;;;;;;;4.00;2.00;;;;;25.77;22.81;100879.88;5078197;28;45432;-45
2022/05/31 10:52:58;;;;;;;;;2.75;2.75;;;;;25.49;22.51;100878.75;5077695;28;46978;-45
2022/05/31 10:55:39;;;;;;;;;1.60;1.60;;;;;25.33;22.61;100882.28;5077164;27;45537;-45
2022/05/31 10:58:47;;;;;;;;;4.20;2.80;;;;;25.25;22.98;100883.47;5077892;28;45351;-45
2022/05/31 11:01:34;;;;;;;;;1.80;1.80;;;;;25.49;23.03;100875.22;5077962;28;45485;-44
2022/05/31 11:04:05;;;;;;;;;3.80;1.80;;;;;25.75;22.97;100882.81;5077369;27;46273;-45
2022/05/31 11:06:54;;;;;;;;;2.00;2.00;;;;;26.09;22.13;100881.03;5078029;27;45594;-44
2022/05/31 11:12:38;;;;;;;;;2.60;2.60;;;;;26.00;22.68;100887.94;4975828;28;45417;-43
2022/05/31 11:15:33;;;;;;;;;2.80;2.80;;;;;25.90;22.62;100892.38;4975170;28;45535;-45
2022/05/31 11:18:20;;;;;;;;;3.20;2.60;;;;;25.85;22.65;100884.94;4975345;28;45507;-44
2022/05/31 11:21:01;;;;;;;;;2.20;2.20;;;;;25.91;22.01;100873.03;4975633;28;45491;-46
2022/05/31 11:23:55;;;;;;;;;2.00;2.00;;;;;25.98;22.29;100884.63;4975884;28;45373;-48
2022/05/31 11:26:32;;;;;;;;;2.00;2.00;;;;;26.10;23.22;100885.38;4975123;28;45552;-43
2022/05/31 11:29:35;;;;;;;;;3.00;3.00;;;;;26.37;22.79;100871.91;4975480;28;45447;-46
2022/05/31 11:32:16;;;;;;;;;2.00;1.80;;;;;26.61;22.07;100888.97;4975611;28;45417;-44
2022/05/31 11:34:54;;;;;;;;;2.80;2.80;;;;;26.46;21.84;100879.72;4975734;28;45499;-45
2022/05/31 11:37:34;;;;;;;;;4.60;1.80;;;;;26.29;21.82;100888.69;4975633;28;45732;-44
2022/05/31 11:40:25;;;;;;;;;2.40;2.00;;;;;26.08;22.73;100892.16;4975646;28;45386;-43
2022/05/31 11:43:12;;;;;;;;;4.00;4.00;;;;;25.98;22.50;100894.72;4971185;28;45460;-45
2022/05/31 11:45:48;;;;;;;;;5.20;2.40;;;;;25.92;22.96;100896.53;4995216;28;45516;-46
2022/05/31 11:48:32;;;;;;;;;3.60;3.20;;;;;25.87;23.01;100899.13;5077060;27;45447;-46
2022/05/31 11:51:17;;;;;;;;;4.40;2.80;;;;;25.73;23.48;100897.75;5077160;27;45338;-44
2022/05/31 11:54:11;;;;;;;;;3.00;3.00;;;;;25.58;24.52;100896.41;5077126;27;45457;-44
2022/05/31 11:56:49;;;;;;;;;2.50;2.50;;;;;25.37;23.05;100895.16;5077267;28;45517;-45
2022/05/31 11:59:27;;;;;;;;;4.20;0.80;;;;;25.07;23.02;100894.47;5076646;27;45397;-44
2022/05/31 12:01:56;;;;;;;;;2.60;2.60;;;;;24.83;23.41;100899.94;5077042;28;45426;-46
2022/05/31 12:04:27;;;;;;;;;4.20;4.20;;;;;24.56;23.84;100905.00;5077193;28;45366;-46
2022/05/31 12:07:02;;;;;;;;;7.75;7.00;;;;;24.35;24.53;100906.38;5076720;28;45446;-44